createdAt,value
2023-12-12T00:00:57.648Z,7.17
2023-12-12T00:03:24.253Z,7.16
2023-12-12T00:05:50.795Z,7.16
2023-12-12T00:08:17.255Z,7.15
2023-12-12T00:10:43.729Z,7.13
2023-12-12T00:13:10.276Z,7.14
2023-12-12T00:15:36.732Z,7.13
2023-12-12T00:18:03.269Z,7.13
2023-12-12T00:20:29.814Z,7.12
2023-12-12T00:22:56.281Z,7.11
2023-12-12T00:25:22.870Z,7.10
2023-12-12T00:27:49.427Z,7.07
2023-12-12T00:30:15.889Z,7.05
2023-12-12T00:32:42.392Z,7.04
2023-12-12T00:35:09.128Z,7.04
2023-12-12T00:37:35.904Z,7.03
2023-12-12T00:40:03.130Z,7.01
2023-12-12T00:42:29.629Z,6.98
2023-12-12T00:44:56.058Z,6.97
2023-12-12T00:47:22.572Z,6.98
2023-12-12T00:49:49.166Z,6.96
2023-12-12T00:52:15.792Z,6.94
2023-12-12T00:54:42.391Z,6.92
2023-12-12T00:57:08.799Z,6.89
2023-12-12T00:59:35.263Z,6.86
2023-12-12T01:02:01.725Z,6.82
2023-12-12T01:04:28.277Z,6.79
2023-12-12T01:06:55.111Z,6.78
2023-12-12T01:09:21.596Z,6.73
2023-12-12T01:11:48.089Z,6.69
2023-12-12T01:14:14.676Z,6.64
2023-12-12T01:16:41.718Z,6.60
2023-12-12T01:19:08.418Z,6.54
2023-12-12T01:21:34.907Z,6.48
2023-12-12T01:24:01.424Z,6.42
2023-12-12T01:26:27.892Z,6.35
2023-12-12T01:28:55.284Z,6.28
2023-12-12T01:31:22.114Z,6.21
2023-12-12T01:33:50.524Z,6.15
2023-12-12T01:36:17.440Z,6.08
2023-12-12T01:38:45.680Z,6.00
2023-12-12T01:41:12.173Z,5.95
2023-12-12T01:43:38.736Z,5.89
2023-12-12T01:46:12.580Z,5.85
2023-12-12T01:48:39.276Z,5.79
2023-12-12T01:51:06.672Z,5.72
2023-12-12T01:53:38.207Z,5.66
2023-12-12T01:56:06.111Z,5.60
2023-12-12T01:58:34.808Z,5.55
2023-12-12T02:01:01.683Z,5.51
2023-12-12T02:03:30.874Z,5.45
2023-12-12T02:05:59.512Z,5.41
2023-12-12T02:08:26.789Z,5.36
2023-12-12T02:10:54.071Z,5.32
2023-12-12T02:13:21.895Z,5.28
2023-12-12T02:15:48.794Z,5.26
2023-12-12T02:18:15.393Z,5.21
2023-12-12T02:20:42.425Z,5.17
2023-12-12T02:23:09.262Z,5.13
2023-12-12T02:25:36.706Z,5.10
2023-12-12T02:28:03.819Z,5.05
2023-12-12T02:30:31.333Z,4.99
2023-12-12T02:33:00.998Z,4.88
2023-12-12T02:35:28.292Z,4.84
2023-12-12T02:37:54.721Z,4.82
2023-12-12T02:40:21.398Z,4.76
2023-12-12T02:42:49.929Z,4.74
2023-12-12T02:45:16.522Z,4.73
2023-12-12T02:47:43.092Z,4.73
2023-12-12T02:50:09.963Z,4.71
2023-12-12T02:52:36.583Z,4.68
2023-12-12T02:55:03.691Z,4.68
2023-12-12T02:57:30.495Z,4.66
2023-12-12T02:59:57.182Z,4.62
2023-12-12T03:02:23.641Z,4.62
2023-12-12T03:04:50.173Z,4.60
2023-12-12T03:07:16.738Z,4.57
2023-12-12T03:09:43.259Z,4.56
2023-12-12T03:12:10.198Z,4.56
2023-12-12T03:14:37.625Z,4.55
2023-12-12T03:17:04.464Z,4.54
2023-12-12T03:19:32.352Z,4.56
2023-12-12T03:21:59.079Z,4.53
2023-12-12T03:24:25.645Z,4.51
2023-12-12T03:26:52.143Z,4.48
2023-12-12T03:29:18.706Z,4.47
2023-12-12T03:31:45.321Z,4.46
2023-12-12T03:34:11.960Z,4.42
2023-12-12T03:36:43.212Z,4.42
2023-12-12T03:39:10.862Z,4.40
2023-12-12T03:41:38.206Z,4.39
2023-12-12T03:44:04.810Z,4.37
2023-12-12T03:46:31.436Z,4.36
2023-12-12T03:48:58.038Z,4.35
2023-12-12T03:51:24.579Z,4.30
2023-12-12T03:53:51.241Z,4.24
2023-12-12T03:56:17.745Z,4.26
2023-12-12T03:58:44.232Z,4.25
2023-12-12T04:01:10.818Z,4.13
2023-12-12T04:03:37.425Z,4.19
2023-12-12T04:06:05.130Z,4.19
2023-12-12T04:08:31.721Z,4.19
2023-12-12T04:10:58.153Z,4.25
2023-12-12T04:13:24.709Z,4.29
2023-12-12T04:15:51.704Z,4.34
2023-12-12T04:18:18.370Z,4.38
2023-12-12T04:20:45.132Z,4.43
2023-12-12T04:23:11.625Z,4.46
2023-12-12T04:25:38.149Z,4.50
2023-12-12T04:28:04.805Z,4.55
2023-12-12T04:30:31.550Z,4.57
2023-12-12T04:32:58.053Z,4.60
2023-12-12T04:35:24.506Z,4.64
2023-12-12T04:37:50.941Z,4.66
2023-12-12T04:40:17.461Z,4.68
2023-12-12T04:42:43.985Z,4.71
2023-12-12T04:45:10.656Z,4.71
2023-12-12T04:47:37.626Z,4.71
2023-12-12T04:50:04.934Z,4.73
2023-12-12T04:52:31.621Z,4.76
2023-12-12T04:54:58.277Z,4.80
2023-12-12T04:57:24.879Z,4.84
2023-12-12T04:59:51.335Z,4.85
2023-12-12T05:02:17.773Z,4.87
2023-12-12T05:04:44.240Z,4.87
2023-12-12T05:07:11.450Z,4.87
2023-12-12T05:09:38.721Z,4.87
2023-12-12T05:12:05.726Z,4.86
2023-12-12T05:14:32.192Z,4.85
2023-12-12T05:17:04.872Z,4.82
2023-12-12T05:19:37.122Z,4.81
2023-12-12T05:22:04.278Z,4.76
2023-12-12T05:24:30.832Z,4.73
2023-12-12T05:26:57.329Z,4.71
2023-12-12T05:29:23.801Z,4.66
2023-12-12T05:31:50.384Z,4.64
2023-12-12T05:34:16.901Z,4.63
2023-12-12T05:36:43.520Z,4.60
2023-12-12T05:39:11.085Z,4.60
2023-12-12T05:41:37.927Z,4.61
2023-12-12T05:44:04.622Z,4.61
2023-12-12T05:46:31.182Z,4.64
2023-12-12T05:48:59.317Z,4.65
2023-12-12T05:51:27.426Z,4.66
2023-12-12T05:53:53.918Z,4.50
2023-12-12T05:56:20.419Z,4.39
2023-12-12T05:58:46.826Z,4.38
2023-12-12T06:01:13.692Z,4.42
2023-12-12T06:03:43.682Z,4.43
2023-12-12T06:06:11.579Z,4.42
2023-12-12T06:08:38.127Z,4.43
2023-12-12T06:11:04.831Z,4.42
2023-12-12T06:13:31.349Z,4.42
2023-12-12T06:15:59.106Z,4.44
2023-12-12T06:18:26.764Z,4.50
2023-12-12T06:20:53.252Z,4.55
2023-12-12T06:23:19.712Z,4.62
2023-12-12T06:25:47.185Z,4.66
2023-12-12T06:28:13.762Z,4.73
2023-12-12T06:30:40.404Z,4.77
2023-12-12T06:33:07.043Z,4.81
2023-12-12T06:35:33.613Z,4.85
2023-12-12T06:38:00.094Z,4.89
2023-12-12T06:40:26.556Z,4.91
2023-12-12T06:42:53.038Z,4.95
2023-12-12T06:45:19.629Z,4.94
2023-12-12T06:47:46.791Z,4.98
2023-12-12T06:50:13.407Z,5.00
2023-12-12T06:52:40.525Z,5.03
2023-12-12T06:55:07.398Z,5.06
2023-12-12T06:57:34.112Z,5.10
2023-12-12T07:00:00.944Z,5.14
2023-12-12T07:02:27.700Z,5.18
2023-12-12T07:04:54.413Z,5.21
2023-12-12T07:07:21.070Z,5.22
2023-12-12T07:09:58.783Z,5.24
2023-12-12T07:15:12.091Z,5.29
2023-12-12T07:17:38.775Z,5.30
2023-12-12T07:20:06.658Z,5.31
2023-12-12T07:22:33.646Z,5.32
2023-12-12T07:25:01.094Z,5.36
2023-12-12T07:27:27.656Z,5.40
2023-12-12T07:29:54.184Z,5.43
2023-12-12T07:32:20.845Z,5.47
2023-12-12T07:34:47.415Z,5.50
2023-12-12T07:37:14.076Z,5.53
2023-12-12T07:39:40.615Z,5.57
2023-12-12T07:42:07.118Z,5.61
2023-12-12T07:44:33.668Z,5.63
2023-12-12T07:47:02.625Z,5.67
2023-12-12T07:49:32.228Z,5.71
2023-12-12T07:51:58.924Z,5.75
2023-12-12T07:54:25.439Z,5.80
2023-12-12T07:56:51.981Z,5.81
2023-12-12T07:59:18.951Z,5.85
2023-12-12T08:01:45.597Z,5.88
2023-12-12T08:04:12.390Z,5.93
2023-12-12T08:06:38.990Z,5.96
2023-12-12T08:09:06.139Z,5.98
2023-12-12T08:11:32.587Z,6.02
2023-12-12T08:14:01.237Z,6.04
2023-12-12T08:16:27.886Z,6.04
2023-12-12T08:18:54.495Z,6.06
2023-12-12T08:21:21.248Z,6.11
2023-12-12T08:23:49.653Z,6.14
2023-12-12T08:26:16.191Z,6.15
2023-12-12T08:28:42.726Z,6.17
2023-12-12T08:31:09.347Z,6.20
2023-12-12T08:33:36.287Z,6.20
2023-12-12T08:36:04.896Z,6.19
2023-12-12T08:38:31.541Z,6.22
2023-12-12T08:40:58.074Z,6.24
2023-12-12T08:43:25.124Z,6.23
2023-12-12T08:45:53.781Z,6.25
2023-12-12T08:48:20.471Z,6.29
2023-12-12T08:50:49.580Z,6.32
2023-12-12T08:53:16.835Z,6.38
2023-12-12T08:55:43.580Z,6.44
2023-12-12T08:58:11.961Z,6.47
2023-12-12T09:00:39.933Z,6.51
2023-12-12T09:03:06.544Z,6.52
2023-12-12T09:05:33.002Z,6.53
2023-12-12T09:07:59.656Z,6.55
2023-12-12T09:10:26.191Z,6.58
2023-12-12T09:12:52.659Z,6.60
2023-12-12T09:15:19.182Z,6.61
2023-12-12T09:17:56.448Z,6.65
2023-12-12T09:20:32.142Z,6.71
2023-12-12T09:22:58.694Z,6.74
2023-12-12T09:25:27.038Z,6.77
2023-12-12T09:27:53.671Z,6.81
2023-12-12T09:30:20.167Z,6.87
2023-12-12T09:32:46.812Z,6.92
2023-12-12T09:35:13.382Z,6.97
2023-12-12T09:37:39.972Z,6.99
2023-12-12T09:40:07.316Z,7.02
2023-12-12T09:42:35.354Z,7.04
2023-12-12T09:45:11.689Z,7.10
2023-12-12T09:47:40.927Z,7.10
2023-12-12T09:50:11.673Z,7.10
2023-12-12T09:52:38.877Z,7.14
2023-12-12T09:55:06.827Z,7.13
2023-12-12T09:57:34.401Z,7.18
2023-12-12T10:00:01.805Z,7.20
2023-12-12T10:02:38.316Z,7.20
2023-12-12T10:05:05.978Z,7.23
2023-12-12T10:07:34.638Z,7.23
2023-12-12T10:10:05.350Z,7.27
2023-12-12T10:12:32.230Z,7.31
2023-12-12T10:14:59.562Z,7.35
2023-12-12T10:17:28.045Z,7.40
2023-12-12T10:20:04.750Z,7.44
2023-12-12T10:22:33.068Z,7.44
2023-12-12T10:25:13.277Z,7.47
2023-12-12T10:27:43.086Z,7.49
2023-12-12T10:30:13.728Z,7.51
2023-12-12T10:32:41.559Z,7.54
2023-12-12T10:35:08.844Z,7.60
2023-12-12T10:37:35.711Z,7.64
2023-12-12T10:40:11.971Z,7.69
2023-12-12T10:42:39.377Z,7.72
2023-12-12T10:45:08.049Z,7.76
2023-12-12T10:47:38.696Z,7.79
2023-12-12T10:50:10.572Z,7.82
2023-12-12T10:52:38.724Z,7.83
2023-12-12T10:55:06.876Z,7.88
2023-12-12T10:57:34.250Z,7.90
2023-12-12T11:00:16.543Z,7.91
2023-12-12T11:02:46.053Z,7.94
2023-12-12T11:05:13.994Z,7.99
2023-12-12T11:07:42.334Z,8.02
2023-12-12T11:10:12.018Z,8.06
2023-12-12T11:12:42.398Z,8.11
2023-12-12T11:15:10.882Z,8.15
2023-12-12T11:17:37.533Z,8.19
2023-12-12T11:20:14.940Z,8.24
2023-12-12T11:22:44.119Z,8.30
2023-12-12T11:25:20.877Z,8.39
2023-12-12T11:27:50.585Z,8.49
2023-12-12T11:30:19.377Z,8.57
2023-12-12T11:32:46.942Z,8.66
2023-12-12T11:35:33.630Z,8.72
2023-12-12T11:38:04.176Z,8.78
2023-12-12T11:40:31.415Z,8.83
2023-12-12T11:43:18.035Z,8.83
2023-12-12T11:45:46.107Z,8.87
2023-12-12T11:48:13.068Z,8.95
2023-12-12T11:50:40.477Z,9.05
2023-12-12T11:53:06.993Z,9.09
2023-12-12T11:55:34.163Z,9.14
2023-12-12T11:58:02.646Z,9.21
2023-12-12T12:00:34.156Z,9.28
2023-12-12T12:03:02.013Z,9.35
2023-12-12T12:05:28.898Z,9.40
2023-12-12T12:07:56.343Z,9.53
2023-12-12T12:10:24.966Z,9.66
2023-12-12T12:12:56.277Z,9.65
2023-12-12T12:15:23.169Z,9.63
2023-12-12T12:17:50.260Z,9.67
2023-12-12T12:20:17.035Z,9.67
2023-12-12T12:22:43.705Z,9.70
2023-12-12T12:25:10.691Z,9.74
2023-12-12T12:27:52.358Z,9.74
2023-12-12T12:30:19.652Z,9.78
2023-12-12T12:33:08.173Z,9.82
2023-12-12T12:35:34.732Z,9.84
2023-12-12T12:38:01.555Z,9.93
2023-12-12T12:40:39.403Z,10.00
2023-12-12T12:43:16.499Z,10.00
2023-12-12T12:45:43.007Z,10.07
2023-12-12T12:48:09.726Z,10.13
2023-12-12T12:50:36.404Z,10.16
2023-12-12T12:53:04.600Z,10.14
2023-12-12T12:55:31.391Z,10.13
2023-12-12T12:57:58.010Z,10.10
2023-12-12T13:00:24.673Z,10.10
2023-12-12T13:02:51.236Z,10.10
2023-12-12T13:05:18.838Z,10.05
2023-12-12T13:07:45.519Z,9.98
2023-12-12T13:10:12.479Z,9.85
2023-12-12T13:12:39.977Z,9.73
2023-12-12T13:15:13.044Z,9.63
2023-12-12T13:17:39.927Z,9.59
2023-12-12T13:20:13.208Z,9.57
2023-12-12T13:22:44.662Z,9.55
2023-12-12T13:25:12.494Z,9.53
2023-12-12T13:27:40.485Z,9.50
2023-12-12T13:30:11.822Z,9.50
2023-12-12T13:32:39.761Z,9.45
2023-12-12T13:35:18.240Z,9.43
2023-12-12T13:37:53.793Z,9.38
2023-12-12T13:40:23.301Z,9.34
2023-12-12T13:42:50.861Z,9.32
2023-12-12T13:45:18.352Z,9.32
2023-12-12T13:47:45.088Z,9.28
2023-12-12T13:50:11.790Z,9.24
2023-12-12T13:52:39.055Z,9.23
2023-12-12T13:55:07.378Z,9.22
2023-12-12T13:57:33.910Z,9.22
2023-12-12T14:00:00.486Z,9.22
2023-12-12T14:02:33.049Z,9.21
2023-12-12T14:05:03.341Z,9.19
2023-12-12T14:07:30.544Z,9.18
2023-12-12T14:09:57.084Z,9.19
2023-12-12T14:12:23.592Z,9.19
2023-12-12T14:14:50.081Z,9.17
2023-12-12T14:17:16.872Z,9.13
2023-12-12T14:19:43.789Z,9.13
2023-12-12T14:22:13.542Z,9.11
2023-12-12T14:24:40.881Z,9.13
2023-12-12T14:27:07.891Z,9.15
2023-12-12T14:29:34.610Z,9.18
2023-12-12T14:32:01.487Z,9.19
2023-12-12T14:34:28.228Z,9.20
2023-12-12T14:36:54.966Z,9.20
2023-12-12T14:39:21.470Z,9.20
2023-12-12T14:41:48.291Z,9.19
2023-12-12T14:44:15.063Z,9.18
2023-12-12T14:46:41.827Z,9.19
2023-12-12T14:49:08.526Z,9.16
2023-12-12T14:51:35.136Z,9.15
2023-12-12T14:54:01.930Z,9.11
2023-12-12T14:56:28.630Z,9.09
2023-12-12T14:58:56.615Z,9.07
2023-12-12T15:01:23.231Z,9.05
2023-12-12T15:03:49.810Z,9.06
2023-12-12T15:06:16.407Z,9.05
2023-12-12T15:08:43.095Z,9.05
2023-12-12T15:11:09.563Z,9.05
2023-12-12T15:13:36.155Z,9.07
2023-12-12T15:16:02.687Z,9.09
2023-12-12T15:18:29.293Z,9.10
2023-12-12T15:20:55.959Z,9.12
2023-12-12T15:23:22.431Z,9.12
2023-12-12T15:25:48.932Z,9.13
2023-12-12T15:28:25.107Z,9.14
2023-12-12T15:30:56.005Z,9.15
2023-12-12T15:33:23.376Z,9.15
2023-12-12T15:35:50.044Z,9.17
2023-12-12T15:38:16.720Z,9.16
2023-12-12T15:40:43.928Z,9.16
2023-12-12T15:43:12.101Z,9.18
2023-12-12T15:45:38.586Z,9.19
2023-12-12T15:48:05.424Z,9.21
2023-12-12T15:50:32.231Z,9.22
2023-12-12T15:52:58.713Z,9.23
2023-12-12T15:55:25.251Z,9.27
2023-12-12T15:57:51.786Z,9.28
2023-12-12T16:00:18.549Z,9.29
2023-12-12T16:02:45.280Z,9.32
2023-12-12T16:05:12.543Z,9.32
2023-12-12T16:07:40.225Z,9.35
2023-12-12T16:10:08.610Z,9.34
2023-12-12T16:12:36.509Z,9.35
2023-12-12T16:15:07.054Z,9.36
2023-12-12T16:17:34.131Z,9.38
2023-12-12T16:20:05.082Z,9.39
2023-12-12T16:22:37.071Z,9.40
2023-12-12T16:25:04.527Z,9.40
2023-12-12T16:27:31.308Z,9.40
2023-12-12T16:29:58.082Z,9.39
2023-12-12T16:32:24.716Z,9.41
2023-12-12T16:34:52.722Z,9.40
2023-12-12T16:37:19.974Z,9.39
2023-12-12T16:39:46.557Z,9.40
2023-12-12T16:42:17.017Z,9.41
2023-12-12T16:44:43.536Z,9.42
2023-12-12T16:47:12.733Z,9.41
2023-12-12T16:49:39.476Z,9.42
2023-12-12T16:52:06.190Z,9.43
2023-12-12T16:54:32.753Z,9.41
2023-12-12T16:56:59.663Z,9.40
2023-12-12T16:59:27.687Z,9.38
2023-12-12T17:01:56.957Z,9.39
2023-12-12T17:04:27.894Z,9.37
2023-12-12T17:06:55.242Z,9.36
2023-12-12T17:09:21.777Z,9.36
2023-12-12T17:11:48.772Z,9.39
2023-12-12T17:14:15.296Z,9.39
2023-12-12T17:16:44.594Z,9.39
2023-12-12T17:19:11.377Z,9.40
2023-12-12T17:21:37.971Z,9.41
2023-12-12T17:24:04.613Z,9.41
2023-12-12T17:26:31.135Z,9.33
2023-12-12T17:28:58.182Z,9.27
2023-12-12T17:31:24.742Z,9.27
2023-12-12T17:33:51.345Z,9.30
2023-12-12T17:36:17.874Z,9.29
2023-12-12T17:38:44.394Z,9.32
2023-12-12T17:41:17.475Z,9.33
2023-12-12T17:43:45.068Z,9.34
2023-12-12T17:46:12.009Z,9.34
2023-12-12T17:48:40.674Z,9.34
2023-12-12T17:51:07.564Z,9.34
2023-12-12T17:53:33.966Z,9.32
2023-12-12T17:56:02.083Z,9.32
2023-12-12T17:58:28.744Z,9.28
2023-12-12T18:00:55.412Z,9.26
2023-12-12T18:03:21.953Z,9.22
2023-12-12T18:05:50.533Z,9.17
2023-12-12T18:08:17.097Z,9.11
2023-12-12T18:10:43.653Z,9.07
2023-12-12T18:13:10.196Z,9.04
2023-12-12T18:15:36.853Z,8.99
2023-12-12T18:18:03.468Z,8.92
2023-12-12T18:20:30.189Z,8.88
2023-12-12T18:22:58.358Z,8.84
2023-12-12T18:25:25.652Z,8.80
2023-12-12T18:27:52.825Z,8.77
2023-12-12T18:30:26.064Z,8.74
2023-12-12T18:32:53.011Z,8.66
2023-12-12T18:35:20.577Z,8.63
2023-12-12T18:37:47.062Z,8.56
2023-12-12T18:40:17.976Z,8.50
2023-12-12T18:42:44.791Z,8.47
2023-12-12T18:45:12.682Z,8.45
2023-12-12T18:47:39.606Z,8.44
2023-12-12T18:50:07.915Z,8.42
2023-12-12T18:52:34.521Z,8.39
2023-12-12T18:55:01.248Z,8.38
2023-12-12T18:57:28.643Z,8.36
2023-12-12T18:59:55.254Z,8.33
2023-12-12T19:02:22.846Z,8.28
2023-12-12T19:04:49.568Z,8.24
2023-12-12T19:07:16.343Z,8.20
2023-12-12T19:09:43.491Z,8.16
2023-12-12T19:12:10.364Z,8.11
2023-12-12T19:14:36.950Z,8.09
2023-12-12T19:17:03.773Z,8.04
2023-12-12T19:19:33.199Z,7.99
2023-12-12T19:22:01.185Z,7.96
2023-12-12T19:24:28.753Z,7.96
2023-12-12T19:26:55.245Z,7.95
2023-12-12T19:29:23.106Z,7.95
2023-12-12T19:31:49.751Z,7.94
2023-12-12T19:34:16.482Z,7.97
2023-12-12T19:36:47.423Z,7.99
2023-12-12T19:39:15.147Z,8.01
2023-12-12T19:41:44.605Z,8.04
2023-12-12T19:44:12.257Z,8.05
2023-12-12T19:46:38.832Z,8.07
2023-12-12T19:49:05.475Z,8.09
2023-12-12T19:51:32.008Z,8.09
2023-12-12T19:53:58.726Z,8.13
2023-12-12T19:56:25.242Z,8.19
2023-12-12T19:58:52.495Z,8.21
2023-12-12T20:01:19.185Z,8.23
2023-12-12T20:03:46.271Z,8.24
2023-12-12T20:06:13.538Z,8.24
2023-12-12T20:08:39.967Z,8.25
2023-12-12T20:11:07.049Z,8.26
2023-12-12T20:13:34.001Z,8.26
2023-12-12T20:16:00.578Z,8.27
2023-12-12T20:18:27.373Z,8.30
2023-12-12T20:20:53.951Z,8.33
2023-12-12T20:23:22.168Z,8.33
2023-12-12T20:25:48.736Z,8.35
2023-12-12T20:28:15.258Z,8.35
2023-12-12T20:30:42.116Z,8.38
2023-12-12T20:33:09.233Z,8.41
2023-12-12T20:35:35.953Z,8.42
2023-12-12T20:38:02.460Z,8.42
2023-12-12T20:40:29.020Z,8.42
2023-12-12T20:42:55.510Z,8.44
2023-12-12T20:45:22.021Z,8.42
2023-12-12T20:47:48.558Z,8.42
2023-12-12T20:50:15.189Z,8.42
2023-12-12T20:52:41.707Z,8.39
2023-12-12T20:55:10.610Z,8.39
2023-12-12T20:57:37.106Z,8.36
2023-12-12T21:00:07.295Z,8.36
2023-12-12T21:02:33.899Z,8.35
2023-12-12T21:05:00.523Z,8.33
2023-12-12T21:07:27.078Z,8.32
2023-12-12T21:09:53.552Z,8.30
2023-12-12T21:12:20.027Z,8.28
2023-12-12T21:14:46.478Z,8.27
2023-12-12T21:17:12.947Z,8.25
2023-12-12T21:19:39.945Z,8.23
2023-12-12T21:22:06.535Z,8.21
2023-12-12T21:24:33.076Z,8.18
2023-12-12T21:27:00.829Z,8.16
2023-12-12T21:29:27.295Z,8.14
2023-12-12T21:31:53.883Z,8.13
2023-12-12T21:34:20.513Z,8.08
2023-12-12T21:36:47.159Z,8.06
2023-12-12T21:39:13.649Z,8.04
2023-12-12T21:41:40.842Z,8.01
2023-12-12T21:44:07.306Z,7.98
2023-12-12T21:46:33.827Z,7.96
2023-12-12T21:49:00.464Z,7.94
2023-12-12T21:51:26.995Z,7.92
2023-12-12T21:53:54.045Z,7.90
2023-12-12T21:56:22.307Z,7.88
2023-12-12T21:58:55.089Z,7.86
2023-12-12T22:01:23.533Z,7.86
2023-12-12T22:03:50.100Z,7.85
2023-12-12T22:06:16.668Z,7.84
2023-12-12T22:08:43.138Z,7.82
2023-12-12T22:11:20.262Z,7.82
2023-12-12T22:13:48.116Z,7.81
2023-12-12T22:16:32.624Z,7.80
2023-12-12T22:19:01.190Z,7.78
2023-12-12T22:21:29.870Z,7.78
2023-12-12T22:23:56.415Z,7.77
2023-12-12T22:26:22.943Z,7.76
2023-12-12T22:28:49.496Z,7.74
2023-12-12T22:31:16.022Z,7.74
2023-12-12T22:33:42.555Z,7.73
2023-12-12T22:36:19.022Z,7.70
2023-12-12T22:38:46.756Z,7.68
2023-12-12T22:41:13.506Z,7.68
2023-12-12T22:43:40.723Z,7.66
2023-12-12T22:46:10.562Z,7.66
2023-12-12T22:48:37.934Z,7.66
2023-12-12T22:51:05.596Z,7.64
2023-12-12T22:53:32.082Z,7.64
2023-12-12T22:55:58.713Z,7.64
2023-12-12T22:58:28.392Z,7.64
2023-12-12T23:00:54.964Z,7.64
2023-12-12T23:03:21.714Z,7.62
2023-12-12T23:05:48.531Z,7.59
2023-12-12T23:08:15.010Z,7.58
2023-12-12T23:10:42.209Z,7.58
2023-12-12T23:13:08.871Z,7.55
2023-12-12T23:15:35.525Z,7.54
2023-12-12T23:18:02.154Z,7.53
2023-12-12T23:20:28.874Z,7.49
2023-12-12T23:22:55.433Z,7.48
2023-12-12T23:25:21.925Z,7.46
2023-12-12T23:27:48.462Z,7.43
2023-12-12T23:30:15.473Z,7.44
2023-12-12T23:32:43.170Z,7.42
2023-12-12T23:35:09.905Z,7.43
2023-12-12T23:37:36.712Z,7.44
2023-12-12T23:40:05.994Z,7.44
2023-12-12T23:42:32.862Z,7.46
2023-12-12T23:45:05.057Z,7.45
2023-12-12T23:47:33.188Z,7.45
2023-12-12T23:50:01.024Z,7.44
2023-12-12T23:52:27.853Z,7.43
2023-12-12T23:54:54.350Z,7.42
2023-12-12T23:57:21.864Z,7.43
2023-12-12T23:59:48.370Z,7.42
